Time;durP1;ratioP1;P1;durP2;ratioP2;P2;SDS_P1;SDS_P2;PMS_P1;PMS_P2;Temp;Humidity;BMP_temperature;BMP_pressure;BME280_temperature;BME280_humidity;BME280_pressure;Samples;Min_cycle;Max_cycle;Signal;HPM_P1;HPM_P2
2021/04/14 00:01:24;;;;;;;3.67;1.70;;;12.30;55.30;;;;;;4975202;28;20589;-53
2021/04/14 00:03:52;;;;;;;2.77;1.80;;;12.30;55.40;;;;;;4975191;28;20452;-56
2021/04/14 00:06:19;;;;;;;6.93;2.10;;;12.30;55.40;;;;;;4975475;28;20489;-53
2021/04/14 00:08:46;;;;;;;4.10;1.77;;;12.20;55.50;;;;;;4975063;28;20546;-56
2021/04/14 00:11:14;;;;;;;7.77;2.07;;;12.30;55.50;;;;;;4975228;28;20517;-56
2021/04/14 00:13:43;;;;;;;13.83;1.50;;;12.20;55.70;;;;;;4975464;28;20434;-54
2021/04/14 00:16:10;;;;;;;6.53;1.80;;;12.20;55.70;;;;;;4974896;28;20481;-56
2021/04/14 00:18:37;;;;;;;4.63;1.73;;;12.20;55.90;;;;;;4975005;28;20592;-56
2021/04/14 00:21:05;;;;;;;3.00;1.90;;;12.10;55.90;;;;;;4974028;28;20474;-56
2021/04/14 00:23:32;;;;;;;4.30;1.87;;;12.10;55.90;;;;;;4974736;28;20452;-56
2021/04/14 00:25:59;;;;;;;4.60;1.60;;;12.10;56.10;;;;;;4973958;28;20557;-54
2021/04/14 00:28:26;;;;;;;3.10;1.90;;;12.10;56.10;;;;;;4975052;28;20465;-55
2021/04/14 00:30:54;;;;;;;4.63;1.83;;;12.10;56.20;;;;;;4974589;28;20449;-56
2021/04/14 00:33:21;;;;;;;5.83;2.07;;;12.00;56.30;;;;;;4975138;28;20530;-54
2021/04/14 00:35:48;;;;;;;4.33;1.70;;;12.00;56.40;;;;;;4974686;28;20442;-56
2021/04/14 00:38:17;;;;;;;1.90;1.70;;;12.00;56.40;;;;;;4974764;28;20530;-55
2021/04/14 00:40:44;;;;;;;3.33;1.80;;;12.00;56.30;;;;;;4974593;28;20470;-52
2021/04/14 00:43:13;;;;;;;8.23;1.80;;;12.00;56.50;;;;;;4975073;28;20442;-50
2021/04/14 00:45:39;;;;;;;4.83;2.10;;;12.00;56.50;;;;;;4974498;28;20807;-56
2021/04/14 00:48:07;;;;;;;2.70;2.50;;;12.00;56.60;;;;;;4973902;28;20460;-55
2021/04/14 00:50:34;;;;;;;4.00;2.27;;;11.90;56.70;;;;;;4974646;28;20526;-56
2021/04/14 00:53:01;;;;;;;2.77;1.83;;;11.90;56.80;;;;;;4974812;28;20442;-57
2021/04/14 00:55:29;;;;;;;1.60;1.50;;;11.90;56.80;;;;;;4974686;28;20474;-55
2021/04/14 00:57:56;;;;;;;2.50;1.80;;;11.90;56.80;;;;;;4974792;28;20533;-55
2021/04/14 01:00:29;;;;;;;10.50;1.90;;;11.90;56.80;;;;;;4974195;28;20476;-55
2021/04/14 01:02:56;;;;;;;6.00;2.00;;;11.80;56.90;;;;;;4974235;28;20484;-55
2021/04/14 01:05:23;;;;;;;4.53;1.80;;;11.80;57.00;;;;;;4974341;28;20480;-56
2021/04/14 01:07:50;;;;;;;2.90;1.70;;;11.80;57.00;;;;;;4974275;28;20445;-56
2021/04/14 01:10:18;;;;;;;2.90;1.67;;;11.80;57.00;;;;;;4973528;28;20442;-56
2021/04/14 01:12:46;;;;;;;3.70;1.83;;;11.80;57.10;;;;;;4974206;28;20445;-56
2021/04/14 01:15:15;;;;;;;3.03;1.83;;;11.70;57.10;;;;;;4974165;28;20446;-59
2021/04/14 01:17:42;;;;;;;2.50;1.40;;;11.70;57.10;;;;;;4974319;28;20447;-55
2021/04/14 01:20:09;;;;;;;4.30;1.60;;;11.70;57.30;;;;;;4972377;28;20510;-54
2021/04/14 01:22:37;;;;;;;4.73;1.90;;;11.60;57.90;;;;;;4974448;28;20509;-56
2021/04/14 01:25:05;;;;;;;3.20;1.53;;;11.70;57.30;;;;;;4974165;28;20592;-55
2021/04/14 01:27:33;;;;;;;3.63;1.60;;;11.70;57.30;;;;;;4974315;28;20525;-55
2021/04/14 01:30:00;;;;;;;2.00;1.80;;;11.60;57.50;;;;;;4973750;28;20447;-54
2021/04/14 01:32:29;;;;;;;4.70;2.03;;;11.60;57.60;;;;;;4973614;28;20543;-54
2021/04/14 01:34:56;;;;;;;2.30;1.57;;;11.60;57.50;;;;;;4973947;28;20446;-55
2021/04/14 01:37:23;;;;;;;3.73;1.70;;;11.60;57.50;;;;;;4973459;28;20450;-55
2021/04/14 01:39:51;;;;;;;3.60;2.10;;;11.50;57.60;;;;;;4973745;28;20530;-56
2021/04/14 01:42:18;;;;;;;1.83;1.50;;;11.50;57.70;;;;;;4973901;28;20450;-56
2021/04/14 01:44:45;;;;;;;3.03;1.83;;;11.40;57.90;;;;;;4973502;28;20438;-54
2021/04/14 01:47:12;;;;;;;2.60;1.70;;;11.40;57.90;;;;;;4973236;28;20485;-53
2021/04/14 01:49:38;;;;;;;1.90;1.73;;;11.40;57.90;;;;;;4973558;28;20454;-56
2021/04/14 01:52:06;;;;;;;6.03;1.40;;;11.40;57.90;;;;;;4973953;28;20438;-52
2021/04/14 01:54:33;;;;;;;2.67;1.50;;;11.40;58.10;;;;;;4973252;28;20478;-53
2021/04/14 01:57:00;;;;;;;1.93;1.50;;;11.40;58.20;;;;;;4973548;28;20507;-50
2021/04/14 01:59:28;;;;;;;2.70;1.80;;;11.40;58.20;;;;;;4973444;28;20450;-57
2021/04/14 02:01:55;;;;;;;4.70;1.80;;;11.30;58.20;;;;;;4973267;28;20515;-54
2021/04/14 02:04:22;;;;;;;4.93;1.50;;;11.40;58.20;;;;;;4973491;28;20438;-56
2021/04/14 02:06:49;;;;;;;5.03;1.87;;;11.40;58.20;;;;;;4973451;28;20484;-56
2021/04/14 02:09:17;;;;;;;2.67;2.10;;;11.30;58.30;;;;;;4973293;28;20521;-53
2021/04/14 02:11:44;;;;;;;2.07;1.30;;;11.20;58.30;;;;;;4973496;28;20517;-55
2021/04/14 02:14:12;;;;;;;3.67;1.50;;;11.20;58.30;;;;;;4973034;28;20479;-55
2021/04/14 02:16:39;;;;;;;3.43;1.73;;;11.20;58.50;;;;;;4973429;28;20431;-56
2021/04/14 02:19:07;;;;;;;2.80;2.03;;;11.20;58.50;;;;;;4973242;28;20450;-53
2021/04/14 02:21:34;;;;;;;4.57;1.80;;;11.10;58.60;;;;;;4973261;28;20474;-55
2021/04/14 02:24:01;;;;;;;4.40;1.77;;;11.10;58.60;;;;;;4973155;28;20504;-54
2021/04/14 02:26:28;;;;;;;1.97;1.60;;;11.10;58.70;;;;;;4972960;28;20469;-53
2021/04/14 02:28:55;;;;;;;3.77;1.60;;;11.10;58.70;;;;;;4972941;28;20557;-55
2021/04/14 02:31:30;;;;;;;3.63;1.50;;;11.10;58.70;;;;;;4973193;28;20500;-50
2021/04/14 02:33:58;;;;;;;2.20;1.53;;;11.00;58.90;;;;;;4973167;28;20456;-51
2021/04/14 02:36:25;;;;;;;5.13;1.60;;;11.00;59.00;;;;;;4972784;28;20478;-54
2021/04/14 02:38:52;;;;;;;4.10;1.47;;;11.00;59.00;;;;;;4973071;28;20430;-52
2021/04/14 02:41:19;;;;;;;2.03;1.53;;;11.00;59.00;;;;;;4972968;28;20571;-54
2021/04/14 02:43:47;;;;;;;2.43;1.63;;;10.90;59.00;;;;;;4973043;28;20446;-55
2021/04/14 02:46:14;;;;;;;2.87;1.47;;;11.00;59.00;;;;;;4973064;28;20505;-50
2021/04/14 02:48:41;;;;;;;2.40;1.57;;;11.00;59.10;;;;;;4990756;28;20446;-55
2021/04/14 02:51:08;;;;;;;1.63;1.50;;;10.90;59.10;;;;;;5054487;28;20461;-54
2021/04/14 02:53:35;;;;;;;6.87;1.60;;;10.90;59.20;;;;;;5054311;28;20526;-54
2021/04/14 02:56:02;;;;;;;2.63;1.67;;;10.90;59.20;;;;;;5054182;28;20508;-56
2021/04/14 02:58:29;;;;;;;2.77;1.57;;;10.90;59.30;;;;;;5051258;28;20542;-53
2021/04/14 03:00:56;;;;;;;9.37;1.80;;;10.80;59.20;;;;;;4972557;28;20522;-56
2021/04/14 03:03:26;;;;;;;2.80;1.67;;;10.80;59.30;;;;;;4972471;28;20454;-55
2021/04/14 03:05:54;;;;;;;3.10;1.30;;;10.80;59.30;;;;;;4972760;28;20489;-55
2021/04/14 03:08:21;;;;;;;2.13;1.43;;;10.80;59.40;;;;;;4972138;28;20474;-56
2021/04/14 03:10:48;;;;;;;7.17;1.60;;;10.70;59.60;;;;;;4971785;28;20490;-53
2021/04/14 03:13:16;;;;;;;1.53;1.40;;;10.80;59.50;;;;;;4972642;28;20537;-56
2021/04/14 03:15:43;;;;;;;1.93;1.10;;;10.70;59.40;;;;;;4972608;28;20442;-55
2021/04/14 03:18:14;;;;;;;1.80;1.40;;;10.80;59.30;;;;;;4972352;28;20560;-55
2021/04/14 03:20:40;;;;;;;2.10;1.50;;;10.80;59.40;;;;;;4972084;28;20571;-56
2021/04/14 03:23:08;;;;;;;3.17;1.63;;;10.70;59.40;;;;;;4969122;28;20447;-55
2021/04/14 03:25:35;;;;;;;1.67;1.57;;;10.70;59.50;;;;;;4972003;28;20508;-55
2021/04/14 03:28:02;;;;;;;2.10;1.27;;;10.70;59.50;;;;;;4954172;28;20496;-53
2021/04/14 03:30:29;;;;;;;1.87;1.63;;;10.70;59.50;;;;;;4953059;28;20538;-55
2021/04/14 03:32:56;;;;;;;1.53;1.27;;;10.70;59.50;;;;;;4952912;28;20512;-56
2021/04/14 03:35:24;;;;;;;2.40;1.30;;;10.60;59.50;;;;;;4952558;28;20443;-53
2021/04/14 03:37:51;;;;;;;3.73;1.30;;;10.60;59.70;;;;;;4953070;28;20443;-56
2021/04/14 03:40:19;;;;;;;2.43;1.50;;;10.60;60.40;;;;;;4953165;28;20471;-53
2021/04/14 03:42:46;;;;;;;1.33;1.23;;;10.50;59.70;;;;;;4952694;28;20501;-54
2021/04/14 03:45:17;;;;;;;3.33;1.50;;;10.50;59.80;;;;;;4952581;28;20447;-56
2021/04/14 03:47:44;;;;;;;2.03;1.70;;;10.50;59.90;;;;;;4953003;28;20554;-55
2021/04/14 03:50:13;;;;;;;2.70;1.50;;;10.50;59.80;;;;;;4952718;28;20552;-56
2021/04/14 03:52:39;;;;;;;2.97;1.40;;;10.50;59.70;;;;;;4952789;28;20443;-54
2021/04/14 03:55:07;;;;;;;2.53;1.37;;;10.50;59.80;;;;;;4952556;28;20536;-56
2021/04/14 03:57:35;;;;;;;1.40;1.30;;;10.50;59.80;;;;;;4952624;28;20483;-54
2021/04/14 04:00:03;;;;;;;1.47;1.20;;;10.50;59.90;;;;;;4952817;28;20447;-52
2021/04/14 04:02:30;;;;;;;1.53;1.20;;;10.40;60.10;;;;;;4952539;28;20447;-56
2021/04/14 04:04:57;;;;;;;1.40;1.27;;;10.40;60.30;;;;;;4952839;28;20455;-52
2021/04/14 04:07:24;;;;;;;1.43;1.33;;;10.40;60.40;;;;;;4952623;28;20509;-55
2021/04/14 04:09:51;;;;;;;2.10;1.43;;;10.30;60.40;;;;;;4952646;28;20450;-52
2021/04/14 04:12:19;;;;;;;2.03;1.37;;;10.30;60.50;;;;;;4952503;28;20533;-51
2021/04/14 04:14:48;;;;;;;1.57;1.37;;;10.30;60.30;;;;;;4952161;28;20523;-56
2021/04/14 04:17:15;;;;;;;1.37;1.20;;;10.40;60.40;;;;;;4952342;28;20473;-55
2021/04/14 04:19:42;;;;;;;6.67;1.70;;;10.30;60.50;;;;;;4952747;28;20488;-56
2021/04/14 04:22:09;;;;;;;2.10;1.33;;;10.30;60.50;;;;;;4953196;28;20564;-57
2021/04/14 04:24:36;;;;;;;2.47;1.20;;;10.30;60.60;;;;;;4955475;28;20471;-56
2021/04/14 04:27:04;;;;;;;1.73;1.40;;;10.20;60.50;;;;;;4955784;28;20455;-54
2021/04/14 04:29:30;;;;;;;4.50;1.40;;;10.20;60.50;;;;;;4950710;28;20495;-56
2021/04/14 04:31:58;;;;;;;1.60;1.40;;;10.20;60.80;;;;;;4955484;28;20549;-54
2021/04/14 04:34:25;;;;;;;2.43;1.43;;;10.20;60.70;;;;;;4955362;28;20470;-56
2021/04/14 04:36:52;;;;;;;2.40;1.23;;;10.20;60.80;;;;;;4955310;28;20479;-51
2021/04/14 04:39:20;;;;;;;4.63;1.37;;;10.20;60.70;;;;;;4955408;28;20467;-55
2021/04/14 04:41:47;;;;;;;1.97;1.40;;;10.20;60.60;;;;;;4954967;28;20537;-54
2021/04/14 04:44:14;;;;;;;2.60;1.43;;;10.20;60.80;;;;;;4954922;28;20466;-54
2021/04/14 04:46:40;;;;;;;2.17;1.30;;;10.10;60.90;;;;;;4955789;28;20483;-54
2021/04/14 04:49:09;;;;;;;1.50;1.40;;;10.10;61.00;;;;;;4955031;28;20455;-54
2021/04/14 04:51:36;;;;;;;1.87;1.20;;;10.10;61.10;;;;;;4955158;28;20436;-53
2021/04/14 04:54:03;;;;;;;2.30;1.33;;;10.10;61.10;;;;;;4954888;28;20505;-52
2021/04/14 04:56:30;;;;;;;2.97;1.30;;;10.10;61.20;;;;;;4955108;28;20439;-55
2021/04/14 04:58:57;;;;;;;2.60;1.33;;;10.10;61.00;;;;;;4954994;28;20506;-56
2021/04/14 05:01:24;;;;;;;1.43;1.33;;;10.10;61.20;;;;;;4954939;28;20560;-54
2021/04/14 05:03:51;;;;;;;1.77;1.33;;;10.10;61.40;;;;;;4955087;28;20501;-54
2021/04/14 05:06:19;;;;;;;3.17;1.30;;;10.10;61.30;;;;;;4954965;28;20439;-55
2021/04/14 05:08:46;;;;;;;1.60;1.30;;;10.10;61.20;;;;;;4955067;28;20592;-55
2021/04/14 05:11:12;;;;;;;1.40;1.23;;;10.10;61.30;;;;;;4954934;28;20463;-55
2021/04/14 05:13:39;;;;;;;3.10;1.50;;;10.10;61.30;;;;;;4955113;28;20451;-55
2021/04/14 05:16:06;;;;;;;2.73;1.30;;;10.10;61.40;;;;;;4954769;28;20451;-55
2021/04/14 05:18:34;;;;;;;3.43;1.20;;;10.00;61.50;;;;;;4954954;28;20518;-54
2021/04/14 05:21:01;;;;;;;1.30;1.20;;;10.00;61.40;;;;;;4954903;28;20566;-54
2021/04/14 05:23:29;;;;;;;2.60;1.37;;;10.00;61.50;;;;;;4954793;28;20451;-54
2021/04/14 05:25:56;;;;;;;1.57;1.47;;;10.10;61.60;;;;;;4954068;28;20498;-56
2021/04/14 05:28:24;;;;;;;3.00;1.10;;;10.00;61.60;;;;;;4954715;28;20447;-53
2021/04/14 05:30:51;;;;;;;1.10;1.10;;;10.10;61.70;;;;;;4954440;28;20443;-55
2021/04/14 05:33:18;;;;;;;1.40;1.30;;;10.10;61.70;;;;;;4954036;28;20446;-56
2021/04/14 05:35:45;;;;;;;1.63;1.33;;;10.10;61.70;;;;;;4954321;28;20478;-53
2021/04/14 05:38:12;;;;;;;1.10;1.10;;;10.00;61.80;;;;;;4954296;28;20444;-56
2021/04/14 05:40:40;;;;;;;1.60;1.30;;;10.10;61.90;;;;;;4953970;28;20483;-56
2021/04/14 05:43:14;;;;;;;1.67;1.27;;;10.10;61.90;;;;;;4954355;28;20475;-54
2021/04/14 05:45:41;;;;;;;1.70;1.60;;;10.10;61.90;;;;;;4954200;28;20518;-55
2021/04/14 05:48:09;;;;;;;1.77;1.10;;;10.10;62.00;;;;;;4954507;28;20432;-54
2021/04/14 05:50:35;;;;;;;2.23;1.20;;;10.20;62.00;;;;;;4954377;28;20570;-54
2021/04/14 05:53:02;;;;;;;1.43;1.33;;;10.20;61.90;;;;;;4954415;28;20469;-49
2021/04/14 05:55:29;;;;;;;2.80;1.10;;;10.20;61.90;;;;;;4954362;28;20463;-54
2021/04/14 05:57:57;;;;;;;1.60;0.97;;;10.30;61.90;;;;;;4954610;28;20522;-51
2021/04/14 06:00:24;;;;;;;1.20;1.10;;;10.30;61.80;;;;;;4953956;28;20482;-55
2021/04/14 06:02:51;;;;;;;1.17;1.07;;;10.40;61.80;;;;;;4954322;28;20486;-51
2021/04/14 06:05:19;;;;;;;1.70;1.30;;;10.40;61.70;;;;;;4954065;28;20487;-56
2021/04/14 06:07:46;;;;;;;3.70;1.43;;;10.50;61.60;;;;;;4953955;28;20486;-56
2021/04/14 06:10:14;;;;;;;1.27;1.17;;;10.60;61.50;;;;;;4953655;28;20471;-53
2021/04/14 06:12:41;;;;;;;1.10;1.10;;;10.60;61.60;;;;;;4953938;28;20440;-52
2021/04/14 06:15:13;;;;;;;2.53;1.33;;;10.70;61.50;;;;;;4954288;28;20455;-54
2021/04/14 06:17:39;;;;;;;1.73;1.23;;;10.80;61.50;;;;;;4953960;28;20435;-55
2021/04/14 06:20:07;;;;;;;1.00;0.90;;;10.90;61.20;;;;;;4953830;28;20483;-51
2021/04/14 06:22:36;;;;;;;1.83;1.27;;;10.90;61.30;;;;;;4953705;28;20493;-54
2021/04/14 06:25:05;;;;;;;1.87;1.20;;;11.00;61.20;;;;;;4953744;28;20466;-54
2021/04/14 06:27:36;;;;;;;1.37;1.20;;;11.10;61.10;;;;;;4953818;28;20471;-56
2021/04/14 06:30:05;;;;;;;1.27;1.27;;;11.20;61.00;;;;;;4953166;28;20452;-56
2021/04/14 06:32:33;;;;;;;1.20;1.10;;;11.20;60.90;;;;;;4975634;28;20454;-56
2021/04/14 06:35:00;;;;;;;0.90;0.90;;;11.20;60.90;;;;;;4972437;28;20450;-56
2021/04/14 06:37:27;;;;;;;1.00;1.00;;;11.30;60.90;;;;;;4967354;28;20452;-54
2021/04/14 06:40:12;;;;;;;1.63;1.30;;;11.30;60.90;;;;;;4962110;28;20487;-55
2021/04/14 06:42:49;;;;;;;3.70;1.20;;;11.40;61.00;;;;;;4954086;28;20483;-54
2021/04/14 06:45:19;;;;;;;1.00;1.00;;;11.40;60.90;;;;;;4952517;28;20572;-53
2021/04/14 06:47:55;;;;;;;1.43;1.33;;;11.50;60.90;;;;;;4953470;28;20481;-55
2021/04/14 06:50:26;;;;;;;1.40;1.30;;;11.60;60.90;;;;;;4953343;28;20542;-54
2021/04/14 06:52:55;;;;;;;1.00;1.00;;;11.60;60.90;;;;;;4953592;28;20501;-53
2021/04/14 06:55:25;;;;;;;1.07;0.97;;;11.60;61.00;;;;;;4953305;28;20447;-55
2021/04/14 06:57:54;;;;;;;2.30;1.17;;;11.70;61.00;;;;;;4953615;28;20478;-56
2021/04/14 07:00:24;;;;;;;3.00;1.00;;;11.70;61.00;;;;;;4953268;28;20452;-55
2021/04/14 07:02:55;;;;;;;2.50;1.00;;;11.90;61.10;;;;;;4953206;28;20432;-54
2021/04/14 07:05:23;;;;;;;1.33;1.07;;;11.90;60.90;;;;;;4953068;28;20524;-56
2021/04/14 07:07:52;;;;;;;1.30;1.17;;;12.00;60.90;;;;;;4953052;28;20501;-55
2021/04/14 07:10:22;;;;;;;1.33;1.23;;;12.10;60.90;;;;;;4953054;28;20517;-55
2021/04/14 07:12:49;;;;;;;1.40;1.00;;;12.20;60.90;;;;;;4953482;28;20423;-55
2021/04/14 07:15:18;;;;;;;1.20;1.10;;;12.20;60.70;;;;;;4952907;28;20439;-53
2021/04/14 07:18:00;;;;;;;2.13;1.27;;;12.40;60.70;;;;;;4953335;28;20474;-55
2021/04/14 07:20:28;;;;;;;1.83;1.13;;;12.60;60.30;;;;;;4953104;28;20447;-54
2021/04/14 07:23:02;;;;;;;0.83;0.83;;;12.70;60.00;;;;;;4953105;28;20487;-55
2021/04/14 07:25:33;;;;;;;1.40;1.10;;;12.80;59.80;;;;;;4952877;28;20501;-54
2021/04/14 07:28:09;;;;;;;1.00;0.90;;;13.00;59.70;;;;;;4953322;28;20459;-56
2021/04/14 07:30:38;;;;;;;1.10;0.87;;;13.10;59.50;;;;;;4952948;28;20482;-56
2021/04/14 07:33:13;;;;;;;1.63;1.10;;;13.30;59.30;;;;;;4952956;28;20509;-55
2021/04/14 07:35:43;;;;;;;1.13;1.13;;;13.40;59.20;;;;;;4952781;28;20496;-55
2021/04/14 07:38:15;;;;;;;1.20;1.10;;;13.50;59.20;;;;;;4953154;28;20477;-54
2021/04/14 07:40:46;;;;;;;1.37;1.10;;;13.60;59.20;;;;;;4952970;28;20439;-54
2021/04/14 07:43:18;;;;;;;3.53;1.03;;;13.70;58.90;;;;;;4952590;28;20435;-54
2021/04/14 07:45:45;;;;;;;1.30;1.20;;;13.80;58.90;;;;;;4952304;28;20487;-57
2021/04/14 07:48:15;;;;;;;1.10;0.93;;;13.90;58.80;;;;;;4952555;28;20447;-56
2021/04/14 07:50:44;;;;;;;2.57;1.60;;;14.20;58.50;;;;;;4952875;28;20483;-54
2021/04/14 07:53:18;;;;;;;1.20;1.20;;;14.30;58.30;;;;;;4952982;28;20482;-55
2021/04/14 07:55:45;;;;;;;1.37;1.27;;;14.50;58.10;;;;;;4952562;28;20634;-55
2021/04/14 07:58:15;;;;;;;1.17;1.07;;;14.60;57.90;;;;;;4955882;28;20439;-55
2021/04/14 08:00:43;;;;;;;2.50;1.43;;;14.90;57.90;;;;;;4956016;28;20535;-56
2021/04/14 08:03:11;;;;;;;1.07;1.07;;;15.00;57.60;;;;;;4956222;28;20485;-55
2021/04/14 08:05:39;;;;;;;1.20;1.10;;;15.30;57.40;;;;;;4956028;28;20459;-56
2021/04/14 08:08:17;;;;;;;1.20;1.10;;;15.40;57.00;;;;;;4955678;28;20434;-55
2021/04/14 08:10:53;;;;;;;1.37;1.20;;;15.40;57.10;;;;;;4955867;28;20454;-55
2021/04/14 08:13:26;;;;;;;1.10;1.00;;;15.20;57.50;;;;;;4955973;28;20481;-54
2021/04/14 08:15:53;;;;;;;2.97;1.33;;;15.40;57.50;;;;;;4955752;28;20490;-56
2021/04/14 08:18:24;;;;;;;2.97;1.20;;;15.60;57.10;;;;;;4955732;28;20478;-56
2021/04/14 08:21:05;;;;;;;1.47;1.00;;;15.70;57.00;;;;;;4955343;28;20477;-53
2021/04/14 08:23:32;;;;;;;1.03;1.03;;;15.60;57.00;;;;;;4955836;28;20443;-54
2021/04/14 08:26:00;;;;;;;1.50;1.20;;;15.60;57.20;;;;;;4955463;28;20447;-53
2021/04/14 08:28:29;;;;;;;2.03;1.20;;;15.60;57.20;;;;;;4955762;28;20508;-54
2021/04/14 08:31:07;;;;;;;1.23;1.13;;;15.80;57.00;;;;;;4955874;28;20459;-53
2021/04/14 08:33:33;;;;;;;3.70;1.00;;;15.80;56.90;;;;;;4955579;28;20479;-55
2021/04/14 08:36:10;;;;;;;1.20;1.00;;;15.90;57.00;;;;;;4955395;28;20439;-56
2021/04/14 08:38:38;;;;;;;1.40;1.30;;;16.20;56.70;;;;;;4955373;28;20479;-53
2021/04/14 08:41:05;;;;;;;1.00;1.00;;;16.40;56.50;;;;;;4955347;28;20559;-56
2021/04/14 08:43:33;;;;;;;1.07;1.07;;;16.70;56.10;;;;;;4955029;28;20439;-54
2021/04/14 08:46:12;;;;;;;6.10;1.33;;;16.90;55.80;;;;;;4955138;28;20460;-55
2021/04/14 08:48:39;;;;;;;2.63;1.30;;;16.80;55.70;;;;;;4955572;28;20457;-56
2021/04/14 08:51:07;;;;;;;1.33;1.23;;;16.80;56.20;;;;;;4955302;28;20447;-53
2021/04/14 08:53:36;;;;;;;1.33;1.23;;;16.90;56.20;;;;;;4955639;28;20458;-52
2021/04/14 08:56:04;;;;;;;1.27;1.17;;;17.10;55.90;;;;;;4954852;28;20451;-56
2021/04/14 08:58:31;;;;;;;1.87;1.00;;;17.10;55.90;;;;;;4955120;28;20529;-55
2021/04/14 09:00:58;;;;;;;1.50;1.40;;;16.90;56.10;;;;;;4955066;28;20580;-55
2021/04/14 09:03:26;;;;;;;1.33;1.03;;;16.80;56.40;;;;;;4955102;28;20509;-59
2021/04/14 09:05:53;;;;;;;1.10;1.10;;;16.80;56.40;;;;;;4954738;28;20494;-52
2021/04/14 09:08:22;;;;;;;1.07;0.97;;;16.90;56.60;;;;;;4954353;28;20450;-57
2021/04/14 09:10:52;;;;;;;1.20;0.80;;;17.20;56.30;;;;;;4954872;28;20501;-54
2021/04/14 09:13:30;;;;;;;1.10;0.87;;;17.70;55.70;;;;;;4955045;28;20520;-56
2021/04/14 09:15:59;;;;;;;1.47;1.00;;;18.00;55.00;;;;;;4954774;28;20474;-56
2021/04/14 09:18:29;;;;;;;1.30;0.90;;;17.90;54.90;;;;;;4955088;28;20471;-51
2021/04/14 09:21:07;;;;;;;3.83;1.10;;;17.60;55.60;;;;;;4954881;28;20466;-51
2021/04/14 09:23:34;;;;;;;1.00;0.90;;;17.30;55.90;;;;;;4954977;28;20532;-55
2021/04/14 09:26:02;;;;;;;1.60;0.87;;;17.20;56.30;;;;;;4954812;28;20450;-54
2021/04/14 09:28:30;;;;;;;1.03;0.93;;;17.00;56.60;;;;;;4954780;28;20447;-56
2021/04/14 09:30:57;;;;;;;0.70;0.70;;;16.80;56.80;;;;;;4954609;29;20500;-54
2021/04/14 09:33:38;;;;;;;1.63;1.00;;;16.80;56.80;;;;;;4954647;28;20530;-55
2021/04/14 09:36:06;;;;;;;1.37;0.90;;;16.70;56.80;;;;;;4954283;28;20439;-54
2021/04/14 09:38:45;;;;;;;1.27;1.17;;;16.60;56.90;;;;;;4954484;28;20455;-54
2021/04/14 09:41:35;;;;;;;1.63;1.00;;;16.50;56.90;;;;;;4954380;28;20447;-57
2021/04/14 09:44:15;;;;;;;1.10;1.00;;;16.50;57.00;;;;;;4954368;28;20500;-55
2021/04/14 09:47:11;;;;;;;1.40;1.00;;;16.40;57.20;;;;;;4954389;28;20446;-55
2021/04/14 09:49:40;;;;;;;1.20;0.93;;;16.40;57.00;;;;;;4954305;28;20465;-54
2021/04/14 09:52:23;;;;;;;1.30;0.80;;;16.40;56.90;;;;;;4954091;28;20435;-53
2021/04/14 09:54:51;;;;;;;1.53;1.10;;;16.70;56.80;;;;;;4954124;28;20435;-53
2021/04/14 09:57:26;;;;;;;2.70;1.10;;;17.10;56.40;;;;;;4954300;28;20625;-56
2021/04/14 09:59:53;;;;;;;1.20;1.10;;;17.50;56.00;;;;;;4954246;28;20463;-56
2021/04/14 10:02:21;;;;;;;0.90;0.90;;;17.90;55.10;;;;;;4954096;28;20479;-56
2021/04/14 10:04:48;;;;;;;1.50;0.97;;;18.30;54.50;;;;;;4954039;28;20469;-56
2021/04/14 10:07:16;;;;;;;1.07;1.07;;;18.80;54.00;;;;;;4954093;28;20566;-56
2021/04/14 10:09:43;;;;;;;1.00;1.00;;;19.10;53.40;;;;;;4953953;28;20444;-55
2021/04/14 10:12:12;;;;;;;0.80;0.80;;;19.30;53.30;;;;;;4954259;28;20508;-53
2021/04/14 10:14:44;;;;;;;1.93;1.20;;;19.50;53.10;;;;;;4953703;28;20443;-54
2021/04/14 10:17:11;;;;;;;1.30;0.90;;;19.80;52.40;;;;;;4966754;28;20454;-55
2021/04/14 10:19:38;;;;;;;1.50;1.40;;;20.10;51.80;;;;;;4960326;28;20409;-56
2021/04/14 10:22:09;;;;;;;1.00;1.00;;;20.50;51.30;;;;;;4973061;28;20478;-52
2021/04/14 10:24:37;;;;;;;2.30;1.23;;;20.90;50.70;;;;;;4972864;28;20511;-54
2021/04/14 10:27:06;;;;;;;2.43;1.10;;;21.30;50.40;;;;;;4973130;28;20468;-55
2021/04/14 10:29:37;;;;;;;1.03;0.93;;;21.20;50.00;;;;;;4973012;28;20444;-53
2021/04/14 10:32:05;;;;;;;1.00;0.90;;;20.80;50.60;;;;;;4972857;28;20432;-54
2021/04/14 10:34:33;;;;;;;1.67;1.03;;;20.30;51.30;;;;;;4972986;28;20416;-55
2021/04/14 10:37:10;;;;;;;1.37;0.90;;;19.90;52.00;;;;;;4973170;28;20446;-55
2021/04/14 10:39:38;;;;;;;1.10;0.90;;;19.60;52.40;;;;;;4972929;28;20434;-56
2021/04/14 10:42:13;;;;;;;1.03;0.80;;;19.30;52.70;;;;;;4972787;28;20481;-57
2021/04/14 10:44:41;;;;;;;1.23;1.00;;;19.20;53.00;;;;;;4972635;28;20434;-56
2021/04/14 10:47:09;;;;;;;1.33;0.80;;;19.00;53.30;;;;;;4972982;28;20446;-55
2021/04/14 10:49:37;;;;;;;1.50;1.00;;;18.80;53.30;;;;;;4964440;28;20489;-54
2021/04/14 10:52:10;;;;;;;1.10;1.00;;;18.70;53.40;;;;;;4953482;29;20435;-58
2021/04/14 10:54:41;;;;;;;1.27;1.00;;;18.70;53.60;;;;;;4953422;28;20549;-57
2021/04/14 10:57:11;;;;;;;4.23;1.10;;;18.70;53.40;;;;;;4953505;28;20428;-59
2021/04/14 10:59:38;;;;;;;1.20;1.10;;;18.60;53.80;;;;;;4953770;28;20496;-59
2021/04/14 11:02:10;;;;;;;2.90;0.90;;;18.60;53.10;;;;;;4953725;28;20483;-59
2021/04/14 11:04:38;;;;;;;1.40;1.03;;;18.60;53.20;;;;;;4953335;28;20451;-59
2021/04/14 11:07:07;;;;;;;1.60;1.00;;;18.70;53.00;;;;;;4953292;28;20449;-60
2021/04/14 11:09:37;;;;;;;2.50;1.10;;;18.80;52.70;;;;;;4953315;28;20450;-60
2021/04/14 11:12:06;;;;;;;1.77;1.20;;;19.00;52.30;;;;;;4953788;28;20435;-59
2021/04/14 11:14:33;;;;;;;1.40;1.10;;;19.10;52.10;;;;;;4961801;28;20446;-59
2021/04/14 11:17:00;;;;;;;2.40;1.30;;;19.20;51.90;;;;;;4972207;28;20507;-59
2021/04/14 11:19:29;;;;;;;1.93;0.80;;;19.50;51.50;;;;;;4958737;28;20454;-59
2021/04/14 11:22:07;;;;;;;1.10;1.00;;;19.80;50.90;;;;;;4952897;28;20478;-59
2021/04/14 11:24:42;;;;;;;1.63;1.00;;;20.10;50.40;;;;;;4967706;28;20434;-57
2021/04/14 11:27:14;;;;;;;1.33;0.90;;;21.60;48.30;;;;;;4972382;28;20468;-58
2021/04/14 11:29:41;;;;;;;1.73;1.20;;;21.40;47.50;;;;;;4972232;28;20402;-59
2021/04/14 11:32:13;;;;;;;1.70;0.90;;;21.90;47.90;;;;;;4974370;28;20437;-58
2021/04/14 11:34:41;;;;;;;1.97;1.00;;;26.00;40.40;;;;;;4975370;28;20439;-58
2021/04/14 11:37:23;;;;;;;1.17;0.83;;;26.80;38.70;;;;;;4975966;28;20485;-58
2021/04/14 11:39:51;;;;;;;1.47;1.00;;;26.40;39.30;;;;;;4975920;28;20504;-58
2021/04/14 11:42:41;;;;;;;0.70;0.70;;;28.70;36.90;;;;;;4975509;28;20476;-58
2021/04/14 11:45:08;;;;;;;4.57;0.90;;;29.20;33.70;;;;;;4975315;28;20493;-57
2021/04/14 11:47:36;;;;;;;1.03;0.80;;;25.60;39.10;;;;;;4975483;28;20481;-57
2021/04/14 11:50:11;;;;;;;3.27;0.87;;;23.70;42.70;;;;;;4975471;28;20462;-58
2021/04/14 11:52:38;;;;;;;1.77;1.10;;;22.50;45.00;;;;;;4975663;28;20491;-58
2021/04/14 11:55:11;;;;;;;3.50;1.30;;;22.00;46.20;;;;;;4976528;28;20495;-57
2021/04/14 11:57:41;;;;;;;1.77;0.87;;;21.60;47.00;;;;;;4975173;28;20451;-57
2021/04/14 12:00:28;;;;;;;4.97;1.33;;;21.10;47.70;;;;;;4975655;28;20503;-58
2021/04/14 12:02:56;;;;;;;4.13;1.20;;;20.70;48.60;;;;;;4975208;28;20518;-58
2021/04/14 12:05:24;;;;;;;2.60;1.20;;;20.50;49.30;;;;;;4974959;28;20417;-58
2021/04/14 12:07:51;;;;;;;5.33;1.20;;;20.20;49.90;;;;;;4975147;28;20477;-58
2021/04/14 12:10:18;;;;;;;3.23;1.10;;;20.10;50.10;;;;;;4975458;28;20509;-58
2021/04/14 12:12:45;;;;;;;3.10;0.97;;;20.10;50.10;;;;;;4975191;28;20442;-58
2021/04/14 12:15:13;;;;;;;1.43;0.90;;;21.90;49.50;;;;;;4975163;28;20560;-59
2021/04/14 12:17:40;;;;;;;5.47;1.20;;;24.10;42.00;;;;;;4975087;28;20537;-58
2021/04/14 12:20:11;;;;;;;4.77;1.03;;;22.00;45.30;;;;;;4975393;28;20438;-58
2021/04/14 12:22:39;;;;;;;10.30;1.60;;;20.70;48.20;;;;;;4974853;28;20452;-58
2021/04/14 12:25:08;;;;;;;3.40;1.40;;;20.00;49.80;;;;;;4955738;28;20447;-58
2021/04/14 12:27:34;;;;;;;6.70;1.30;;;19.50;50.80;;;;;;4955422;28;20483;-58
2021/04/14 12:30:01;;;;;;;8.47;1.40;;;19.20;51.30;;;;;;4955503;28;20493;-58
2021/04/14 12:32:28;;;;;;;8.70;1.70;;;19.00;51.70;;;;;;4955617;28;20414;-58
2021/04/14 12:34:55;;;;;;;14.87;1.37;;;18.80;52.00;;;;;;4955155;28;20516;-58
2021/04/14 12:37:22;;;;;;;20.80;1.67;;;18.80;52.20;;;;;;4955601;28;20522;-57
2021/04/14 12:39:50;;;;;;;4.07;1.23;;;18.70;52.30;;;;;;4955393;28;20451;-57
2021/04/14 12:42:24;;;;;;;9.83;1.90;;;18.60;52.60;;;;;;4954648;28;20474;-57
2021/04/14 12:44:51;;;;;;;15.30;1.90;;;18.40;52.80;;;;;;4955088;28;20458;-57
2021/04/14 12:47:21;;;;;;;7.30;1.70;;;18.40;53.10;;;;;;4955399;28;20504;-58
2021/04/14 12:49:48;;;;;;;16.67;2.37;;;19.90;52.30;;;;;;4981798;28;20455;-57
2021/04/14 12:52:20;;;;;;;12.27;1.63;;;21.60;50.40;;;;;;4969955;28;20432;-58
2021/04/14 12:54:46;;;;;;;7.50;1.40;;;27.80;39.00;;;;;;4953858;28;20538;-58